Latest Weather Observations for Swan Island

IDT60801

Issued at 8:32 am EDT Wednesday 7 December 2016 (issued every 30 minutes, with the page automatically refreshed every 10 minutes)

About weather observations | Map of weather stations | Latest weather observations for TAS | Other Formats
Station Details ID: 092123 Name: SWAN ISLAND Lat: -40.73 Lon: 148.12 Height: 15.0 m
Data from the previous 72 hours. | See also: Recent months at Swan Island
Date/Time
EDT
Temp
°C
App
Temp
°C
Dew
Point
°C
Rel
Hum
%
Delta-T
°C
Wind Press
QNH
hPa
Press
MSL
hPa
Rain since
9am
mm
Dir  Spd
km/h
Gust
km/h
Spd
kts
Gust
kts
07/08:30am 15.9 10.7 10.4 70 2.9 W 28 41 15 22 1013.7 1013.6 0.0
07/08:00am 15.4 9.5 10.4 72 2.6 W 32 41 17 22 1013.6 1013.5 0.0
07/07:30am 14.9 10.1 10.3 74 2.4 W 26 35 14 19 1013.3 1013.2 0.0
07/07:00am 14.3 10.5 9.9 75 2.3 WSW 20 33 11 18 1013.0 1012.9 0.0
07/06:30am 13.7 9.2 9.9 78 2.0 W 24 33 13 18 1012.7 1012.6 0.0
07/06:00am 13.6 9.3 10.6 82 1.6 W 24 33 13 18 1012.3 1012.2 0.0
07/05:30am 13.4 9.1 10.8 84 1.4 W 24 35 13 19 1012.1 1012.0 0.0
07/05:00am 13.5 9.9 10.7 83 1.5 W 20 32 11 17 1011.8 1011.7 0.0
07/04:30am 13.2 9.6 10.0 81 1.6 WSW 19 28 10 15 1011.6 1011.5 0.0
07/04:00am 13.0 9.2 9.8 81 1.6 WSW 20 32 11 17 1011.5 1011.4 0.0
07/03:30am 12.6 9.3 9.4 81 1.6 WSW 17 24 9 13 1011.7 1011.6 0.0
07/03:00am 12.4 9.5 9.8 84 1.3 WSW 15 24 8 13 1011.8 1011.7 0.0
07/02:30am 11.6 9.8 9.5 87 1.1 SW 9 15 5 8 1012.1 1012.0 0.0
07/02:00am 11.8 9.4 10.0 89 0.9 WSW 13 22 7 12 1012.3 1012.2 0.0
07/01:30am 11.9 10.5 10.8 93 0.6 WSW 9 13 5 7 1012.3 1012.2 0.0
07/01:00am 12.0 10.6 10.9 93 0.6 SW 9 11 5 6 1012.2 1012.1 0.0
07/12:30am 12.4 11.1 11.1 92 0.7 SW 9 11 5 6 1012.1 1012.0 0.0
07/12:00am 13.4 12.6 11.6 89 1.0 SSW 7 9 4 5 1011.9 1011.8 0.0
 
Date/Time
EDT
Temp
°C
App
Temp
°C
Dew
Point
°C
Rel
Hum
%
Delta-T
°C
Wind Press
QNH
hPa
Press
MSL
hPa
Rain since
9am
mm
Dir  Spd
km/h
Gust
km/h
Spd
kts
Gust
kts
06/11:30pm 13.6 12.9 11.5 87 1.1 SSE 6 9 3 5 1011.8 1011.7 0.0
06/11:00pm 13.8 13.1 11.3 85 1.3 SSE 6 9 3 5 1011.7 1011.6 0.0
06/10:30pm 14.4 13.1 11.2 81 1.7 S 9 15 5 8 1011.7 1011.6 0.0
06/10:00pm 14.9 11.9 10.7 76 2.2 WSW 17 30 9 16 1011.5 1011.4 0.0
06/09:30pm 15.2 11.8 11.2 77 2.1 WSW 20 28 11 15 1011.2 1011.1 0.0
06/09:00pm 14.9 11.3 10.7 76 2.2 W 20 33 11 18 1010.9 1010.8 0.0
06/08:30pm 15.1 9.7 10.9 76 2.2 W 30 39 16 21 1010.7 1010.7 0.0
06/08:00pm 15.4 10.7 10.6 73 2.5 W 26 35 14 19 1010.5 1010.5 0.0
06/07:30pm 15.5 9.6 10.5 72 2.6 W 32 41 17 22 1010.1 1010.1 0.0
06/07:00pm 15.0 9.4 10.2 73 2.5 W 30 43 16 23 1009.6 1009.6 0.0
06/06:41pm 15.1 9.5 10.3 73 2.5 W 30 48 16 26 1009.5 1009.5 0.0
06/06:30pm 15.5 9.2 9.8 69 3.0 W 33 52 18 28 1009.3 1009.3 0.0
06/06:00pm 16.3 10.4 10.4 68 3.1 W 32 50 17 27 1009.0 1009.0 0.0
06/05:38pm 16.4 9.7 9.6 64 3.5 W 35 59 19 32 1008.6 1008.6 0.0
06/05:30pm 16.6 10.4 9.5 63 3.7 W 32 46 17 25 1008.5 1008.5 0.0
06/05:00pm 16.7 10.1 9.9 64 3.6 W 35 50 19 27 1008.3 1008.3 0.0
06/04:34pm 16.7 9.9 9.4 62 3.8 W 35 54 19 29 1008.3 1008.3 0.0
06/04:30pm 16.9 9.9 9.8 63 3.7 W 37 52 20 28 1008.3 1008.3 0.0
06/04:00pm 16.5 9.0 9.4 63 3.7 W 39 59 21 32 1008.2 1008.2 0.0
06/03:30pm 16.6 9.2 9.8 64 3.6 WNW 39 61 21 33 1008.4 1008.4 0.0
06/03:18pm 16.7 8.8 9.4 62 3.8 WNW 41 59 22 32 1008.5 1008.5 0.0
06/03:00pm 16.6 8.3 9.3 62 3.8 WNW 43 59 23 32 1008.7 1008.7 0.0
06/02:51pm 16.6 8.7 9.3 62 3.8 WNW 41 59 22 32 1008.5 1008.5 0.0
06/02:30pm 16.6 8.5 8.8 60 4.0 WNW 41 56 22 30 1008.5 1008.5 0.0
06/02:00pm 16.5 8.9 9.2 62 3.8 WNW 39 50 21 27 1008.9 1008.9 0.0
06/01:30pm 16.4 9.4 8.6 60 4.0 WNW 35 52 19 28 1008.9 1008.9 0.0
06/01:15pm 16.2 9.5 8.2 59 4.1 W 33 54 18 29 1009.1 1009.1 0.0
06/01:00pm 16.2 9.3 8.7 61 3.8 WNW 35 50 19 27 1009.2 1009.2 0.0
06/12:30pm 15.8 8.3 7.8 59 4.0 WNW 37 52 20 28 1009.4 1009.4 0.0
06/12:02pm 16.3 8.9 8.3 59 4.1 WNW 37 56 20 30 1009.6 1009.6 0.0
06/12:00pm 15.9 8.0 7.9 59 4.0 WNW 39 56 21 30 1009.6 1009.6 0.0
06/11:30am 16.0 9.1 9.0 63 3.6 WNW 35 46 19 25 1009.8 1009.8 0.0
06/11:00am 15.5 9.1 8.7 64 3.5 WNW 32 41 17 22 1010.2 1010.2 0.0
06/10:30am 14.6 8.7 9.0 69 2.9 WNW 30 44 16 24 1010.1 1010.1 0.0
06/10:00am 15.0 9.4 8.7 66 3.2 NW 28 37 15 20 1010.1 1010.1 0.0
06/09:30am 14.5 8.8 8.2 66 3.2 WNW 28 39 15 21 1010.2 1010.2 0.0
06/09:00am 14.9 10.8 8.8 67 3.1 WNW 20 32 11 17 1010.7 1010.7 0.0
06/08:30am 14.5 10.1 9.1 70 2.8 W 22 33 12 18 1011.2 1011.1 0.0
06/08:00am 14.3 9.7 9.5 73 2.5 WNW 24 35 13 19 1011.2 1011.1 0.0
06/07:30am 14.0 9.1 9.8 76 2.2 W 26 33 14 18 1010.4 1010.4 0.0
06/07:00am 13.6 9.1 10.2 80 1.8 W 24 33 13 18 1010.9 1010.8 0.0
06/06:30am 13.4 9.6 11.3 87 1.1 W 22 30 12 16 1010.3 1010.3 0.0
06/06:00am 13.3 10.3 12.0 92 0.7 W 19 35 10 19 1009.6 1009.6 0.0
06/05:30am 13.7 12.5 12.8 94 0.5 WSW 11 17 6 9 1009.4 1009.4 0.0
06/05:00am 13.4 12.5 12.5 94 0.5 WSW 9 15 5 8 1008.9 1008.9 0.0
06/04:30am 13.7 12.8 12.6 93 0.6 WSW 9 17 5 9 1009.0 1009.0 0.0
06/04:00am 14.0 12.4 12.7 92 0.7 SSW 13 20 7 11 1009.1 1009.1 0.0
06/03:30am 14.3 12.4 13.0 92 0.7 SW 15 22 8 12 1009.5 1009.5 0.0
06/03:00am 14.6 12.3 13.1 91 0.8 S 17 24 9 13 1009.7 1009.7 0.0
06/02:30am 14.9 11.8 13.4 91 0.8 SSE 22 30 12 16 1009.9 1009.9 0.0
06/02:00am 14.7 11.9 13.1 90 0.9 S 20 30 11 16 1010.4 1010.4 0.0
06/01:30am 14.7 11.1 13.1 90 0.9 SSE 24 32 13 17 1010.7 1010.7 0.0
06/01:00am 15.0 11.8 13.0 88 1.1 SSE 22 32 12 17 1011.4 1011.3 0.0
06/12:30am 14.9 12.8 12.4 85 1.4 S 15 20 8 11 1011.5 1011.4 0.0
06/12:00am 15.0 12.6 12.5 85 1.4 S 17 22 9 12 1012.0 1011.9 0.0
 
Date/Time
EDT
Temp
°C
App
Temp
°C
Dew
Point
°C
Rel
Hum
%
Delta-T
°C
Wind Press
QNH
hPa
Press
MSL
hPa
Rain since
9am
mm
Dir  Spd
km/h
Gust
km/h
Spd
kts
Gust
kts
05/11:30pm 15.2 13.9 12.5 84 1.5 S 11 15 6 8 1012.8 1012.7 0.0
05/11:00pm 15.2 14.3 12.5 84 1.5 SSW 9 13 5 7 1012.9 1012.8 0.0
05/10:30pm 15.2 14.6 11.8 80 1.8 SSW 6 9 3 5 1012.7 1012.6 0.0
05/10:00pm 14.7 13.7 11.1 79 1.9 SW 7 13 4 7 1012.2 1012.1 0.0
05/09:30pm 14.9 12.4 11.1 78 2.0 W 15 22 8 12 1011.8 1011.7 0.0
05/09:00pm 15.1 11.9 11.1 77 2.1 W 19 28 10 15 1011.5 1011.4 0.0
05/08:30pm 15.3 12.1 11.1 76 2.2 W 19 24 10 13 1011.4 1011.3 0.0
05/08:00pm 15.7 11.9 11.3 75 2.4 W 22 30 12 16 1010.5 1010.5 0.0
05/07:30pm 16.3 12.7 11.7 74 2.5 W 22 33 12 18 1010.0 1010.0 0.0
05/07:00pm 15.9 10.4 11.7 76 2.3 W 32 41 17 22 1009.1 1009.1 0.0
05/06:30pm 16.2 9.7 11.6 74 2.5 W 37 50 20 27 1008.6 1008.6 0.0
05/06:00pm 17.3 10.8 11.8 70 3.0 W 37 50 20 27 1008.6 1008.6 0.0
05/05:30pm 17.7 12.0 11.9 69 3.2 W 33 46 18 25 1008.3 1008.3 0.0
05/05:00pm 17.2 11.8 12.1 72 2.8 WNW 32 44 17 24 1007.6 1007.6 0.0
05/04:33pm 17.0 10.9 11.9 72 2.8 WNW 35 54 19 29 1007.3 1007.3 0.0
05/04:30pm 17.0 11.3 11.9 72 2.8 WNW 33 44 18 24 1007.4 1007.4 0.0
05/04:00pm 17.5 12.0 12.4 72 2.8 WNW 33 52 18 28 1007.8 1007.8 0.0
05/03:30pm 17.7 10.5 11.9 69 3.2 WNW 41 56 22 30 1007.8 1007.8 0.0
05/03:00pm 17.9 10.9 11.2 65 3.6 WNW 39 57 21 31 1007.5 1007.5 0.0
05/02:30pm 17.8 10.7 10.9 64 3.7 WNW 39 50 21 27 1007.4 1007.4 0.0
05/02:00pm 17.8 11.4 10.7 63 3.8 WNW 35 48 19 26 1007.5 1007.5 0.0
05/01:37pm 18.1 11.7 10.7 62 4.0 WNW 35 56 19 30 1007.4 1007.4 0.0
05/01:30pm 18.0 11.3 11.1 64 3.7 WNW 37 52 20 28 1007.4 1007.4 0.0
05/01:00pm 17.6 10.1 10.7 64 3.7 WNW 41 54 22 29 1007.1 1007.1 0.0
05/12:47pm 17.6 10.0 10.5 63 3.8 WNW 41 59 22 32 1006.8 1006.8 0.0
05/12:30pm 17.9 11.4 10.5 62 4.0 WNW 35 52 19 28 1006.9 1006.9 0.0
05/12:00pm 17.7 10.9 10.8 64 3.7 WNW 37 57 20 31 1006.5 1006.5 0.0
05/11:31am 17.5 10.3 10.4 63 3.8 W 39 59 21 32 1006.0 1006.0 0.0
05/11:30am 17.5 10.2 10.1 62 3.9 W 39 56 21 30 1006.0 1006.0 0.0
05/11:00am 17.9 9.8 10.8 63 3.8 W 44 70 24 38 1005.3 1005.3 0.0
05/10:30am 17.1 7.4 10.5 65 3.5 W 52 74 28 40 1004.8 1004.8 0.0
05/10:01am 16.9 9.7 10.7 67 3.3 W 39 63 21 34 1004.3 1004.3 0.0
05/10:00am 16.8 10.0 10.6 67 3.3 W 37 56 20 30 1004.4 1004.4 0.0
05/09:30am 16.7 9.0 11.4 71 2.9 W 43 61 23 33 1003.9 1003.9 0.0
05/09:20am 16.5 8.9 11.9 74 2.5 WNW 43 61 23 33 1003.9 1003.9 0.0
05/09:00am 16.5 9.2 12.7 78 2.1 WNW 43 57 23 31 1003.8 1003.8 0.0
05/08:30am 16.5 9.4 13.4 82 1.7 WNW 43 59 23 32 1003.5 1003.5 0.0
05/08:26am 16.7 10.1 13.6 82 1.7 WNW 41 59 22 32 1003.5 1003.5 0.0
05/08:00am 16.7 10.6 14.2 85 1.4 WNW 39 56 21 30 1003.3 1003.3 0.0
05/07:30am 16.6 9.9 14.6 88 1.1 WNW 43 54 23 29 1002.8 1002.8 0.0
05/07:13am 16.5 10.7 14.9 90 0.9 WNW 39 59 21 32 1002.6 1002.6 0.0
05/07:00am 16.5 10.0 15.2 92 0.8 WNW 43 56 23 30 1002.4 1002.4 0.0
05/06:35am 16.5 10.7 15.0 91 0.9 WNW 39 57 21 31 1002.0 1002.0 0.0
05/06:30am 16.6 10.9 15.1 91 0.9 WNW 39 54 21 29 1001.9 1001.9 0.0
05/06:00am 17.4 11.6 15.0 86 1.4 WNW 39 52 21 28 1001.6 1001.6 0.0
05/05:30am 18.2 12.6 15.5 84 1.6 WNW 39 52 21 28 1001.4 1001.4 0.0
05/05:00am 19.0 11.6 15.3 79 2.2 NW 48 76 26 41 1000.4 1000.4 0.0
05/04:43am 18.8 11.8 15.3 80 2.1 NW 46 69 25 37 999.9 999.9 0.0
05/04:30am 18.9 11.2 15.6 81 1.9 NNW 50 59 27 32 999.4 999.4 0.0
05/04:00am 18.3 12.7 15.6 84 1.6 NNW 39 43 21 23 999.3 999.3 0.0
05/03:30am 17.0 13.6 14.8 87 1.3 NNW 26 30 14 16 999.4 999.4 0.0
05/03:00am 17.4 13.3 15.0 86 1.4 NNW 30 35 16 19 1000.0 1000.0 0.0
05/02:30am 17.5 13.5 15.1 86 1.4 NNW 30 35 16 19 1000.4 1000.4 0.0
05/02:00am 17.6 13.5 15.0 85 1.5 NNW 30 33 16 18 1000.8 1000.8 0.0
05/01:30am 17.7 13.6 15.0 84 1.6 NNW 30 33 16 18 1001.3 1001.3 0.0
05/01:00am 17.7 14.8 15.1 85 1.5 NNW 24 28 13 15 1002.3 1002.3 0.0
05/12:30am 17.4 14.1 14.9 85 1.4 NNW 26 30 14 16 1002.6 1002.6 0.0
05/12:00am 17.5 14.0 14.6 83 1.7 NNW 26 32 14 17 1003.3 1003.3 0.0
 
Date/Time
EDT
Temp
°C
App
Temp
°C
Dew
Point
°C
Rel
Hum
%
Delta-T
°C
Wind Press
QNH
hPa
Press
MSL
hPa
Rain since
9am
mm
Dir  Spd
km/h
Gust
km/h
Spd
kts
Gust
kts
04/11:30pm 18.4 14.5 14.5 78 2.3 NNW 28 35 15 19 1004.1 1004.1 0.0
04/11:00pm 17.6 15.6 15.4 87 1.3 NNW 20 24 11 13 1004.4 1004.4 0.0
04/10:30pm 17.9 16.2 16.2 90 1.0 NNW 20 32 11 17 1004.6 1004.6 0.0
04/10:00pm 17.4 17.7 15.9 91 0.9 W 9 15 5 8 1005.0 1005.0 0.0
04/09:30pm 17.3 18.2 16.0 92 0.8 NNW 6 11 3 6 1005.0 1005.0 0.0
04/09:00pm 17.3 13.9 15.8 91 0.9 N 28 33 15 18 1005.2 1005.2 0.0
04/08:30pm 17.4 16.1 15.9 91 0.9 N 17 24 9 13 1005.4 1005.4 0.0
04/08:00pm 17.3 17.0 15.5 89 1.1 N 11 15 6 8 1005.9 1005.9 0.0
04/07:30pm 17.8 17.3 15.8 88 1.2 NNE 13 17 7 9 1006.6 1006.6 0.0
04/07:00pm 18.2 17.0 16.0 87 1.3 NNE 17 22 9 12 1006.8 1006.8 0.0
04/06:30pm 18.3 18.2 16.1 87 1.3 NE 11 17 6 9 1007.1 1007.1 0.0
04/06:00pm 17.9 17.6 15.5 86 1.4 E 11 17 6 9 1007.3 1007.3 0.0
04/05:30pm 17.7 16.1 15.1 85 1.5 ENE 17 20 9 11 1007.5 1007.5 0.0
04/05:00pm 18.0 16.9 15.3 84 1.6 E 15 20 8 11 1007.9 1007.9 0.0
04/04:30pm 17.9 15.7 15.0 83 1.7 ENE 20 24 11 13 1008.4 1008.4 0.0
04/04:00pm 17.7 14.7 14.8 83 1.7 ENE 24 28 13 15 1008.9 1008.9 0.0
04/03:30pm 17.9 15.5 14.4 80 2.0 ENE 20 26 11 14 1009.7 1009.7 0.0
04/03:00pm 18.0 15.6 14.5 80 2.0 ENE 20 24 11 13 1010.2 1010.2 0.0
04/02:30pm 17.9 14.8 14.4 80 2.0 ENE 24 28 13 15 1010.4 1010.4 0.0
04/02:00pm 17.7 14.9 14.2 80 2.0 ENE 22 28 12 15 1010.9 1010.8 0.0
04/01:30pm 17.9 15.4 14.2 79 2.1 ENE 20 26 11 14 1011.6 1011.5 0.0
04/01:00pm 17.9 15.3 13.8 77 2.3 ENE 20 24 11 13 1012.2 1012.1 0.0
04/12:30pm 18.3 16.2 13.6 74 2.7 ENE 17 19 9 10 1012.6 1012.5 0.0
04/12:00pm 17.8 16.2 12.7 72 2.8 ENE 13 17 7 9 1013.2 1013.1 0.0
04/11:30am 18.0 15.8 12.2 69 3.2 E 15 19 8 10 1013.1 1013.0 0.0
04/11:00am 17.5 15.7 12.0 70 3.0 ENE 13 15 7 8 1013.5 1013.4 0.0
04/10:30am 17.4 15.5 11.7 69 3.1 ENE 13 17 7 9 1013.9 1013.8 0.0
04/10:00am 16.8 14.6 10.9 68 3.2 ENE 13 15 7 8 1014.1 1014.0 0.0
04/09:30am 16.3 14.4 10.4 68 3.1 ENE 11 15 6 8 1014.3 1014.2 0.0
04/09:00am 15.6 13.8 9.5 67 3.2 NE 9 11 5 6 1014.8 1014.7 0.0

Other Formats:

Comma delimited format used in spreadsheet applications
http://www.bom.gov.au/fwo/IDT60801/IDT60801.95985.axf

JavaScript Object Notation format (JSON) in row-major order
http://www.bom.gov.au/fwo/IDT60801/IDT60801.95985.json